sensor_id;sensor_type;location;lat;lon;timestamp;pressure;altitude;pressure_sealevel;temperature;humidity
56825;BME280;42705;50.326;18.772;2022-08-21T00:02:30;98044.27;;;20.81;73.56
56825;BME280;42705;50.326;18.772;2022-08-21T00:07:52;98045.66;;;20.90;73.57
56825;BME280;42705;50.326;18.772;2022-08-21T00:13:13;98051.26;;;21.07;73.48
56825;BME280;42705;50.326;18.772;2022-08-21T00:18:35;98037.56;;;21.13;73.61
56825;BME280;42705;50.326;18.772;2022-08-21T00:23:56;98034.80;;;21.36;73.61
56825;BME280;42705;50.326;18.772;2022-08-21T00:29:17;98022.31;;;21.46;73.34
56825;BME280;42705;50.326;18.772;2022-08-21T00:34:38;98014.02;;;21.54;73.29
56825;BME280;42705;50.326;18.772;2022-08-21T00:39:59;97999.81;;;21.69;73.19
56825;BME280;42705;50.326;18.772;2022-08-21T00:45:22;97993.59;;;21.76;72.89
56825;BME280;42705;50.326;18.772;2022-08-21T00:50:47;97988.79;;;21.75;72.65
56825;BME280;42705;50.326;18.772;2022-08-21T00:56:11;97981.47;;;21.80;72.67
56825;BME280;42705;50.326;18.772;2022-08-21T01:01:32;97985.02;;;21.83;72.53
56825;BME280;42705;50.326;18.772;2022-08-21T01:06:54;97977.90;;;21.86;72.44
56825;BME280;42705;50.326;18.772;2022-08-21T01:12:15;97972.45;;;21.93;72.38
56825;BME280;42705;50.326;18.772;2022-08-21T01:17:36;97967.13;;;21.93;72.34
56825;BME280;42705;50.326;18.772;2022-08-21T01:22:58;97953.95;;;21.89;72.24
56825;BME280;42705;50.326;18.772;2022-08-21T01:28:22;97958.11;;;21.85;72.40
56825;BME280;42705;50.326;18.772;2022-08-21T01:33:43;97947.91;;;21.81;72.54
56825;BME280;42705;50.326;18.772;2022-08-21T01:39:05;97944.28;;;21.85;72.55
56825;BME280;42705;50.326;18.772;2022-08-21T01:44:27;97935.11;;;21.81;72.40
56825;BME280;42705;50.326;18.772;2022-08-21T01:49:48;97928.38;;;21.60;72.46
56825;BME280;42705;50.326;18.772;2022-08-21T01:55:10;97898.58;;;21.42;72.67
56825;BME280;42705;50.326;18.772;2022-08-21T02:00:32;97887.30;;;21.39;73.10
56825;BME280;42705;50.326;18.772;2022-08-21T02:05:54;97888.88;;;21.38;73.17
56825;BME280;42705;50.326;18.772;2022-08-21T02:11:15;97885.99;;;21.30;73.25
56825;BME280;42705;50.326;18.772;2022-08-21T02:16:36;97869.58;;;21.24;73.24
56825;BME280;42705;50.326;18.772;2022-08-21T02:21:58;97865.30;;;21.23;73.46
56825;BME280;42705;50.326;18.772;2022-08-21T02:27:18;97858.42;;;21.24;73.60
56825;BME280;42705;50.326;18.772;2022-08-21T02:32:39;97858.05;;;21.21;73.58
56825;BME280;42705;50.326;18.772;2022-08-21T02:38:04;97870.03;;;21.21;73.68
56825;BME280;42705;50.326;18.772;2022-08-21T02:43:28;97874.23;;;21.19;73.73
56825;BME280;42705;50.326;18.772;2022-08-21T02:48:48;97875.80;;;21.18;73.77
56825;BME280;42705;50.326;18.772;2022-08-21T02:54:09;97882.31;;;21.22;73.87
56825;BME280;42705;50.326;18.772;2022-08-21T02:59:30;97881.05;;;21.15;73.80
56825;BME280;42705;50.326;18.772;2022-08-21T03:04:51;97890.81;;;21.12;73.96
56825;BME280;42705;50.326;18.772;2022-08-21T03:16:01;97881.27;;;21.23;74.05
56825;BME280;42705;50.326;18.772;2022-08-21T03:21:22;97884.31;;;21.27;74.22
56825;BME280;42705;50.326;18.772;2022-08-21T03:26:44;97882.08;;;21.33;74.21
56825;BME280;42705;50.326;18.772;2022-08-21T03:32:05;97889.80;;;21.22;74.02
56825;BME280;42705;50.326;18.772;2022-08-21T03:37:28;97894.30;;;21.13;74.17
56825;BME280;42705;50.326;18.772;2022-08-21T03:42:50;97898.51;;;21.11;74.35
56825;BME280;42705;50.326;18.772;2022-08-21T03:48:11;97905.25;;;21.14;74.69
56825;BME280;42705;50.326;18.772;2022-08-21T03:53:32;97904.06;;;21.19;74.75
56825;BME280;42705;50.326;18.772;2022-08-21T03:58:53;97911.16;;;21.16;74.64
56825;BME280;42705;50.326;18.772;2022-08-21T04:04:13;97912.35;;;21.10;74.63
56825;BME280;42705;50.326;18.772;2022-08-21T04:09:34;97914.48;;;21.11;74.86
56825;BME280;42705;50.326;18.772;2022-08-21T04:14:56;97916.11;;;21.12;74.88
56825;BME280;42705;50.326;18.772;2022-08-21T04:20:17;97905.69;;;21.20;75.19
56825;BME280;42705;50.326;18.772;2022-08-21T04:25:39;97910.36;;;21.24;74.98
56825;BME280;42705;50.326;18.772;2022-08-21T04:31:00;97910.06;;;21.23;74.96
56825;BME280;42705;50.326;18.772;2022-08-21T04:36:21;97908.05;;;21.28;75.14
56825;BME280;42705;50.326;18.772;2022-08-21T04:41:41;97902.06;;;21.33;75.13
56825;BME280;42705;50.326;18.772;2022-08-21T04:47:03;97912.63;;;21.30;75.00
56825;BME280;42705;50.326;18.772;2022-08-21T04:52:24;97914.27;;;21.40;75.29
56825;BME280;42705;50.326;18.772;2022-08-21T04:57:46;97912.16;;;21.61;75.36
56825;BME280;42705;50.326;18.772;2022-08-21T05:03:07;97927.19;;;21.74;75.01
56825;BME280;42705;50.326;18.772;2022-08-21T05:08:30;97936.87;;;21.87;74.93
56825;BME280;42705;50.326;18.772;2022-08-21T05:13:51;97939.29;;;21.98;74.70
56825;BME280;42705;50.326;18.772;2022-08-21T05:19:12;97948.34;;;22.09;74.39
56825;BME280;42705;50.326;18.772;2022-08-21T05:24:34;97966.55;;;22.21;74.28
56825;BME280;42705;50.326;18.772;2022-08-21T05:29:56;97970.21;;;22.08;74.21
56825;BME280;42705;50.326;18.772;2022-08-21T05:35:17;97970.21;;;22.08;74.21
56825;BME280;42705;50.326;18.772;2022-08-21T05:40:37;97973.39;;;22.08;73.92
56825;BME280;42705;50.326;18.772;2022-08-21T05:45:58;97981.80;;;22.02;73.87
56825;BME280;42705;50.326;18.772;2022-08-21T05:51:20;97994.83;;;21.92;73.78
56825;BME280;42705;50.326;18.772;2022-08-21T05:56:41;98011.20;;;21.58;73.13
56825;BME280;42705;50.326;18.772;2022-08-21T06:02:04;98018.02;;;21.01;72.82
56825;BME280;42705;50.326;18.772;2022-08-21T06:07:25;98006.55;;;20.59;73.05
56825;BME280;42705;50.326;18.772;2022-08-21T06:12:45;98011.87;;;20.43;73.38
56825;BME280;42705;50.326;18.772;2022-08-21T06:18:07;98016.55;;;20.31;73.70
56825;BME280;42705;50.326;18.772;2022-08-21T06:23:28;98008.00;;;20.22;73.86
56825;BME280;42705;50.326;18.772;2022-08-21T06:28:50;98003.52;;;20.23;73.86
56825;BME280;42705;50.326;18.772;2022-08-21T06:34:10;97998.70;;;20.22;73.68
56825;BME280;42705;50.326;18.772;2022-08-21T06:39:32;98004.44;;;20.19;73.30
56825;BME280;42705;50.326;18.772;2022-08-21T06:44:54;97999.72;;;20.21;72.97
56825;BME280;42705;50.326;18.772;2022-08-21T06:50:15;98008.43;;;20.19;72.31
56825;BME280;42705;50.326;18.772;2022-08-21T06:55:37;98010.12;;;20.14;72.01
56825;BME280;42705;50.326;18.772;2022-08-21T07:01:00;98003.97;;;20.13;71.56
56825;BME280;42705;50.326;18.772;2022-08-21T07:06:21;98000.38;;;20.17;71.28
56825;BME280;42705;50.326;18.772;2022-08-21T07:11:42;97994.41;;;20.21;71.05
56825;BME280;42705;50.326;18.772;2022-08-21T07:17:05;98010.94;;;20.30;71.06
56825;BME280;42705;50.326;18.772;2022-08-21T07:22:26;98006.31;;;20.35;70.88
56825;BME280;42705;50.326;18.772;2022-08-21T07:27:47;98009.70;;;20.49;70.88
56825;BME280;42705;50.326;18.772;2022-08-21T07:33:08;98007.44;;;20.62;70.57
56825;BME280;42705;50.326;18.772;2022-08-21T07:38:29;98003.64;;;20.67;70.29
56825;BME280;42705;50.326;18.772;2022-08-21T07:43:50;98006.23;;;20.74;70.07
56825;BME280;42705;50.326;18.772;2022-08-21T07:49:11;98008.83;;;20.87;70.08
56825;BME280;42705;50.326;18.772;2022-08-21T07:54:32;98009.00;;;21.02;69.82
56825;BME280;42705;50.326;18.772;2022-08-21T07:59:53;98013.24;;;21.09;69.54
56825;BME280;42705;50.326;18.772;2022-08-21T08:05:14;98017.54;;;21.20;69.09
56825;BME280;42705;50.326;18.772;2022-08-21T08:10:37;98013.34;;;21.31;68.84
56825;BME280;42705;50.326;18.772;2022-08-21T08:15:59;98023.26;;;21.51;68.85
56825;BME280;42705;50.326;18.772;2022-08-21T08:21:20;98018.72;;;21.68;68.50
56825;BME280;42705;50.326;18.772;2022-08-21T08:26:41;98010.05;;;21.82;68.21
56825;BME280;42705;50.326;18.772;2022-08-21T08:32:03;98005.25;;;22.03;68.06
56825;BME280;42705;50.326;18.772;2022-08-21T08:37:25;98008.98;;;22.23;67.65
56825;BME280;42705;50.326;18.772;2022-08-21T08:42:46;98020.41;;;22.42;67.33
56825;BME280;42705;50.326;18.772;2022-08-21T08:48:10;98020.98;;;22.53;66.97
56825;BME280;42705;50.326;18.772;2022-08-21T08:53:55;98022.69;;;22.57;66.71
56825;BME280;42705;50.326;18.772;2022-08-21T08:59:21;98022.89;;;22.65;66.68
56825;BME280;42705;50.326;18.772;2022-08-21T09:04:46;98027.86;;;22.61;66.35
56825;BME280;42705;50.326;18.772;2022-08-21T09:16:05;98028.06;;;22.48;66.22
56825;BME280;42705;50.326;18.772;2022-08-21T09:27:10;98016.26;;;22.67;66.17
56825;BME280;42705;50.326;18.772;2022-08-21T09:32:37;98023.22;;;22.68;66.26
56825;BME280;42705;50.326;18.772;2022-08-21T09:38:02;98030.23;;;22.60;66.20
56825;BME280;42705;50.326;18.772;2022-08-21T09:43:27;98015.52;;;22.48;66.09
56825;BME280;42705;50.326;18.772;2022-08-21T09:48:50;98016.81;;;22.36;66.14
56825;BME280;42705;50.326;18.772;2022-08-21T09:54:15;98023.73;;;22.25;66.30
56825;BME280;42705;50.326;18.772;2022-08-21T09:59:38;98008.39;;;22.21;66.54
56825;BME280;42705;50.326;18.772;2022-08-21T10:05:17;98018.22;;;22.08;66.66
56825;BME280;42705;50.326;18.772;2022-08-21T10:10:40;98021.44;;;21.89;66.86
56825;BME280;42705;50.326;18.772;2022-08-21T10:28:13;98026.22;;;21.52;67.91
56825;BME280;42705;50.326;18.772;2022-08-21T10:55:59;98046.73;;;21.61;68.51
56825;BME280;42705;50.326;18.772;2022-08-21T11:01:33;98047.50;;;22.27;67.49
56825;BME280;42705;50.326;18.772;2022-08-21T11:07:01;98030.05;;;22.43;67.47
56825;BME280;42705;50.326;18.772;2022-08-21T11:12:29;98037.62;;;22.46;67.38
56825;BME280;42705;50.326;18.772;2022-08-21T11:24:32;98056.73;;;21.94;67.34
56825;BME280;42705;50.326;18.772;2022-08-21T11:29:57;98060.64;;;21.63;67.58
56825;BME280;42705;50.326;18.772;2022-08-21T11:35:47;98046.64;;;21.49;68.08
56825;BME280;42705;50.326;18.772;2022-08-21T11:41:32;98050.44;;;21.42;68.18
56825;BME280;42705;50.326;18.772;2022-08-21T11:47:17;98053.66;;;21.34;68.54
56825;BME280;42705;50.326;18.772;2022-08-21T12:04:01;98057.61;;;21.06;68.82
56825;BME280;42705;50.326;18.772;2022-08-21T12:09:31;98067.45;;;20.90;68.94
56825;BME280;42705;50.326;18.772;2022-08-21T12:32:28;98066.93;;;20.19;69.30
56825;BME280;42705;50.326;18.772;2022-08-21T12:38:09;98081.44;;;20.01;69.26
56825;BME280;42705;50.326;18.772;2022-08-21T12:43:47;98077.42;;;19.71;69.26
56825;BME280;42705;50.326;18.772;2022-08-21T12:49:13;98086.13;;;19.49;69.57
56825;BME280;42705;50.326;18.772;2022-08-21T12:54:42;98080.54;;;19.34;69.76
56825;BME280;42705;50.326;18.772;2022-08-21T13:00:07;98085.98;;;19.17;69.82
56825;BME280;42705;50.326;18.772;2022-08-21T13:05:35;98083.92;;;19.12;70.24
56825;BME280;42705;50.326;18.772;2022-08-21T13:10:59;98078.83;;;19.04;70.33
56825;BME280;42705;50.326;18.772;2022-08-21T13:16:25;98090.34;;;19.00;70.49
56825;BME280;42705;50.326;18.772;2022-08-21T13:21:47;98085.93;;;18.90;70.50
56825;BME280;42705;50.326;18.772;2022-08-21T13:27:26;98082.66;;;18.88;70.78
56825;BME280;42705;50.326;18.772;2022-08-21T13:32:52;98085.63;;;18.89;70.80
56825;BME280;42705;50.326;18.772;2022-08-21T13:38:24;98091.42;;;18.88;70.84
56825;BME280;42705;50.326;18.772;2022-08-21T13:43:56;98089.48;;;18.86;70.93
56825;BME280;42705;50.326;18.772;2022-08-21T13:49:24;98088.27;;;18.89;71.05
56825;BME280;42705;50.326;18.772;2022-08-21T13:55:08;98089.28;;;18.81;71.05
56825;BME280;42705;50.326;18.772;2022-08-21T14:00:42;98103.47;;;18.84;71.23
56825;BME280;42705;50.326;18.772;2022-08-21T14:06:16;98105.00;;;18.89;71.24
56825;BME280;42705;50.326;18.772;2022-08-21T14:11:39;98101.34;;;18.84;71.02
56825;BME280;42705;50.326;18.772;2022-08-21T14:17:04;98105.31;;;18.84;71.16
56825;BME280;42705;50.326;18.772;2022-08-21T14:22:42;98107.55;;;18.80;71.01
56825;BME280;42705;50.326;18.772;2022-08-21T14:33:54;98117.73;;;18.70;71.10
56825;BME280;42705;50.326;18.772;2022-08-21T14:39:16;98110.56;;;18.57;71.26
56825;BME280;42705;50.326;18.772;2022-08-21T14:44:37;98109.52;;;18.51;71.44
56825;BME280;42705;50.326;18.772;2022-08-21T14:49:58;98115.56;;;18.56;71.58
56825;BME280;42705;50.326;18.772;2022-08-21T14:55:21;98105.35;;;18.53;71.52
56825;BME280;42705;50.326;18.772;2022-08-21T15:00:42;98104.43;;;18.49;71.55
56825;BME280;42705;50.326;18.772;2022-08-21T15:06:06;98112.78;;;18.53;71.68
56825;BME280;42705;50.326;18.772;2022-08-21T15:11:27;98118.89;;;18.47;71.60
56825;BME280;42705;50.326;18.772;2022-08-21T15:16:49;98116.73;;;18.40;71.56
56825;BME280;42705;50.326;18.772;2022-08-21T15:22:11;98121.33;;;18.42;71.71
56825;BME280;42705;50.326;18.772;2022-08-21T15:27:32;98127.22;;;18.37;71.62
56825;BME280;42705;50.326;18.772;2022-08-21T15:32:53;98125.98;;;18.33;71.75
56825;BME280;42705;50.326;18.772;2022-08-21T15:38:15;98135.38;;;18.35;71.79
56825;BME280;42705;50.326;18.772;2022-08-21T15:43:46;98130.66;;;18.31;71.73
56825;BME280;42705;50.326;18.772;2022-08-21T15:49:11;98131.98;;;18.31;71.83
56825;BME280;42705;50.326;18.772;2022-08-21T15:54:32;98135.04;;;18.28;71.63
56825;BME280;42705;50.326;18.772;2022-08-21T15:59:55;98135.22;;;18.19;71.79
56825;BME280;42705;50.326;18.772;2022-08-21T16:05:19;98133.14;;;18.15;71.97
56825;BME280;42705;50.326;18.772;2022-08-21T16:10:41;98143.04;;;18.17;72.01
56825;BME280;42705;50.326;18.772;2022-08-21T16:16:02;98136.71;;;18.11;72.05
56825;BME280;42705;50.326;18.772;2022-08-21T16:21:25;98158.31;;;18.08;72.18
56825;BME280;42705;50.326;18.772;2022-08-21T16:26:48;98153.81;;;18.08;72.35
56825;BME280;42705;50.326;18.772;2022-08-21T16:32:13;98144.62;;;18.04;72.40
56825;BME280;42705;50.326;18.772;2022-08-21T16:37:36;98144.21;;;18.01;72.43
56825;BME280;42705;50.326;18.772;2022-08-21T16:42:57;98134.64;;;17.96;72.43
56825;BME280;42705;50.326;18.772;2022-08-21T16:48:18;98140.95;;;17.88;72.65
56825;BME280;42705;50.326;18.772;2022-08-21T16:53:39;98147.65;;;17.84;72.78
56825;BME280;42705;50.326;18.772;2022-08-21T16:59:00;98155.39;;;17.85;73.03
56825;BME280;42705;50.326;18.772;2022-08-21T17:04:21;98150.70;;;17.87;73.10
56825;BME280;42705;50.326;18.772;2022-08-21T17:09:44;98148.42;;;17.95;73.08
56825;BME280;42705;50.326;18.772;2022-08-21T17:15:09;98140.64;;;18.04;73.29
56825;BME280;42705;50.326;18.772;2022-08-21T17:20:33;98141.70;;;18.10;73.28
56825;BME280;42705;50.326;18.772;2022-08-21T17:25:54;98131.20;;;18.13;73.08
56825;BME280;42705;50.326;18.772;2022-08-21T17:31:16;98127.52;;;18.07;72.97
56825;BME280;42705;50.326;18.772;2022-08-21T17:36:37;98130.28;;;17.99;73.12
56825;BME280;42705;50.326;18.772;2022-08-21T17:42:00;98139.89;;;18.00;73.22
56825;BME280;42705;50.326;18.772;2022-08-21T17:47:30;98146.52;;;18.00;73.22
56825;BME280;42705;50.326;18.772;2022-08-21T17:52:52;98134.86;;;17.94;73.16
56825;BME280;42705;50.326;18.772;2022-08-21T17:58:14;98140.50;;;17.84;73.17
56825;BME280;42705;50.326;18.772;2022-08-21T18:03:35;98133.96;;;17.80;73.33
56825;BME280;42705;50.326;18.772;2022-08-21T18:08:58;98140.97;;;17.77;73.47
56825;BME280;42705;50.326;18.772;2022-08-21T18:14:21;98151.88;;;17.78;73.51
56825;BME280;42705;50.326;18.772;2022-08-21T18:19:45;98141.13;;;17.69;73.58
56825;BME280;42705;50.326;18.772;2022-08-21T18:25:06;98132.17;;;17.70;73.70
56825;BME280;42705;50.326;18.772;2022-08-21T18:30:29;98137.70;;;17.75;73.80
56825;BME280;42705;50.326;18.772;2022-08-21T18:35:50;98141.91;;;17.80;73.85
56825;BME280;42705;50.326;18.772;2022-08-21T18:41:11;98136.30;;;17.79;73.75
56825;BME280;42705;50.326;18.772;2022-08-21T18:46:32;98131.18;;;17.77;73.82
56825;BME280;42705;50.326;18.772;2022-08-21T18:51:53;98143.00;;;17.75;73.85
56825;BME280;42705;50.326;18.772;2022-08-21T18:57:15;98143.80;;;17.75;73.97
56825;BME280;42705;50.326;18.772;2022-08-21T19:02:37;98143.55;;;17.81;74.01
56825;BME280;42705;50.326;18.772;2022-08-21T19:07:59;98139.34;;;17.76;73.96
56825;BME280;42705;50.326;18.772;2022-08-21T19:13:20;98120.98;;;17.74;74.07
56825;BME280;42705;50.326;18.772;2022-08-21T19:18:41;98114.44;;;17.70;74.14
56825;BME280;42705;50.326;18.772;2022-08-21T19:24:03;98111.37;;;17.67;74.34
56825;BME280;42705;50.326;18.772;2022-08-21T19:29:26;98113.94;;;17.71;74.48
56825;BME280;42705;50.326;18.772;2022-08-21T19:34:47;98114.97;;;17.76;74.58
56825;BME280;42705;50.326;18.772;2022-08-21T19:40:11;98119.52;;;17.83;74.68
56825;BME280;42705;50.326;18.772;2022-08-21T19:45:34;98139.09;;;17.88;74.58
56825;BME280;42705;50.326;18.772;2022-08-21T19:50:58;98121.88;;;17.88;74.65
56825;BME280;42705;50.326;18.772;2022-08-21T19:56:22;98106.99;;;17.87;74.61
56825;BME280;42705;50.326;18.772;2022-08-21T20:01:46;98095.98;;;17.84;74.59
56825;BME280;42705;50.326;18.772;2022-08-21T20:07:08;98086.50;;;17.85;74.74
56825;BME280;42705;50.326;18.772;2022-08-21T20:12:29;98081.28;;;17.81;74.81
56825;BME280;42705;50.326;18.772;2022-08-21T20:17:50;98081.16;;;17.78;74.83
56825;BME280;42705;50.326;18.772;2022-08-21T20:23:12;98079.34;;;17.79;75.02
56825;BME280;42705;50.326;18.772;2022-08-21T20:28:35;98078.77;;;17.84;75.14
56825;BME280;42705;50.326;18.772;2022-08-21T20:33:57;98076.34;;;17.89;75.26
56825;BME280;42705;50.326;18.772;2022-08-21T20:39:18;98075.86;;;17.96;75.39
56825;BME280;42705;50.326;18.772;2022-08-21T20:44:39;98076.17;;;17.97;75.33
56825;BME280;42705;50.326;18.772;2022-08-21T20:50:04;98078.30;;;17.98;75.43
56825;BME280;42705;50.326;18.772;2022-08-21T20:55:28;98071.48;;;17.99;75.52
56825;BME280;42705;50.326;18.772;2022-08-21T21:00:50;98068.34;;;18.00;75.65
56825;BME280;42705;50.326;18.772;2022-08-21T21:06:17;98068.91;;;18.06;75.76
56825;BME280;42705;50.326;18.772;2022-08-21T21:18:09;98066.47;;;18.11;75.84
56825;BME280;42705;50.326;18.772;2022-08-21T21:23:36;98061.70;;;18.17;76.02
56825;BME280;42705;50.326;18.772;2022-08-21T21:34:45;98067.25;;;18.29;76.12
56825;BME280;42705;50.326;18.772;2022-08-21T21:40:30;98076.65;;;18.39;76.11
56825;BME280;42705;50.326;18.772;2022-08-21T22:03:28;98071.66;;;18.40;75.83
56825;BME280;42705;50.326;18.772;2022-08-21T22:09:03;98062.44;;;18.29;75.80
56825;BME280;42705;50.326;18.772;2022-08-21T22:14:37;98057.11;;;18.15;76.07
56825;BME280;42705;50.326;18.772;2022-08-21T22:19:59;98062.89;;;18.08;76.21
56825;BME280;42705;50.326;18.772;2022-08-21T22:25:33;98063.52;;;18.10;76.48
56825;BME280;42705;50.326;18.772;2022-08-21T22:31:20;98064.63;;;18.05;76.55
56825;BME280;42705;50.326;18.772;2022-08-21T22:36:54;98068.38;;;18.06;76.66
56825;BME280;42705;50.326;18.772;2022-08-21T22:42:23;98066.34;;;18.02;76.70
56825;BME280;42705;50.326;18.772;2022-08-21T22:47:45;98061.47;;;17.94;76.56
56825;BME280;42705;50.326;18.772;2022-08-21T22:53:08;98060.13;;;17.88;76.64
56825;BME280;42705;50.326;18.772;2022-08-21T22:58:39;98051.61;;;17.75;76.70
56825;BME280;42705;50.326;18.772;2022-08-21T23:04:16;98055.36;;;17.70;76.93
56825;BME280;42705;50.326;18.772;2022-08-21T23:09:37;98052.09;;;17.68;76.96
56825;BME280;42705;50.326;18.772;2022-08-21T23:15:09;98045.88;;;17.71;77.13
56825;BME280;42705;50.326;18.772;2022-08-21T23:20:41;98049.52;;;17.63;77.03
56825;BME280;42705;50.326;18.772;2022-08-21T23:26:18;98043.95;;;17.52;76.92
56825;BME280;42705;50.326;18.772;2022-08-21T23:43:32;98042.70;;;17.19;77.18
56825;BME280;42705;50.326;18.772;2022-08-21T23:49:25;98053.27;;;17.12;77.51
56825;BME280;42705;50.326;18.772;2022-08-21T23:55:20;98049.78;;;17.12;77.56
